NC State University, North Carolina
Current Conditions -  °F | °C
As of 1:51 AM on Sunday 23 Nov 2014 (Local Time) from KRDU Reporting Station
Overcast Overcast  
Wind Chill: 36°   Ceiling: 1500
Heat Index: 36°   Visibility: 10mi
Dew Point: 27°   Wind: 0mph
Humidity: 70%   Direction: NA
Pressure: 30.3"   Gusts: NA
Location:  35.8072°N, 78.7126°W
Report Text: KRDU 230651Z 00000KT 10SM BKN015 OVC250 02/M03 A3030 RMK AO2 SLP263 T00221028 $
Loading
Personal Weather Stations






























Interactive Weather Map New forecast layout! Learn more

10-Day Weather Forecast

Advertisements
Track Severe Weather on mobile